sensor_id;sensor_type;location;lat;lon;timestamp;P1;durP1;ratioP1;P2;durP2;ratioP2
49824;SDS011;35714;55.708;37.478;2023-06-24T00:01:51;11.13;;;8.80;;
49824;SDS011;35714;55.708;37.478;2023-06-24T00:04:17;12.20;;;9.75;;
49824;SDS011;35714;55.708;37.478;2023-06-24T00:06:45;10.75;;;9.07;;
49824;SDS011;35714;55.708;37.478;2023-06-24T00:09:11;10.07;;;8.45;;
49824;SDS011;35714;55.708;37.478;2023-06-24T00:11:36;11.70;;;9.07;;
49824;SDS011;35714;55.708;37.478;2023-06-24T00:14:02;11.45;;;9.52;;
49824;SDS011;35714;55.708;37.478;2023-06-24T00:16:28;12.27;;;9.70;;
49824;SDS011;35714;55.708;37.478;2023-06-24T00:18:54;10.43;;;8.90;;
49824;SDS011;35714;55.708;37.478;2023-06-24T00:21:26;13.35;;;9.30;;
49824;SDS011;35714;55.708;37.478;2023-06-24T00:23:57;11.00;;;9.18;;
49824;SDS011;35714;55.708;37.478;2023-06-24T00:26:24;11.07;;;9.45;;
49824;SDS011;35714;55.708;37.478;2023-06-24T00:28:50;12.85;;;10.18;;
49824;SDS011;35714;55.708;37.478;2023-06-24T00:31:16;11.52;;;9.70;;
49824;SDS011;35714;55.708;37.478;2023-06-24T00:33:42;11.10;;;9.57;;
49824;SDS011;35714;55.708;37.478;2023-06-24T00:36:08;13.20;;;10.48;;
49824;SDS011;35714;55.708;37.478;2023-06-24T00:38:37;14.10;;;10.38;;
49824;SDS011;35714;55.708;37.478;2023-06-24T00:41:04;13.05;;;9.60;;
49824;SDS011;35714;55.708;37.478;2023-06-24T00:43:30;10.40;;;9.30;;
49824;SDS011;35714;55.708;37.478;2023-06-24T00:45:56;11.30;;;9.93;;
49824;SDS011;35714;55.708;37.478;2023-06-24T00:48:22;13.52;;;10.05;;
49824;SDS011;35714;55.708;37.478;2023-06-24T00:50:50;12.25;;;9.68;;
49824;SDS011;35714;55.708;37.478;2023-06-24T00:53:16;11.15;;;9.18;;
49824;SDS011;35714;55.708;37.478;2023-06-24T00:55:42;14.98;;;11.00;;
49824;SDS011;35714;55.708;37.478;2023-06-24T00:58:14;12.27;;;10.18;;
49824;SDS011;35714;55.708;37.478;2023-06-24T01:00:42;12.20;;;9.77;;
49824;SDS011;35714;55.708;37.478;2023-06-24T01:03:11;11.73;;;9.82;;
49824;SDS011;35714;55.708;37.478;2023-06-24T01:05:39;12.35;;;10.25;;
49824;SDS011;35714;55.708;37.478;2023-06-24T01:08:06;11.18;;;9.40;;
49824;SDS011;35714;55.708;37.478;2023-06-24T01:10:32;13.48;;;10.07;;
49824;SDS011;35714;55.708;37.478;2023-06-24T01:12:58;11.43;;;9.82;;
49824;SDS011;35714;55.708;37.478;2023-06-24T01:15:24;17.40;;;11.20;;
49824;SDS011;35714;55.708;37.478;2023-06-24T01:17:56;13.57;;;10.20;;
49824;SDS011;35714;55.708;37.478;2023-06-24T01:20:36;11.25;;;9.85;;
49824;SDS011;35714;55.708;37.478;2023-06-24T01:26:19;10.43;;;8.70;;
49824;SDS011;35714;55.708;37.478;2023-06-24T01:31:43;12.27;;;10.02;;
49824;SDS011;35714;55.708;37.478;2023-06-24T01:37:32;10.88;;;8.25;;
49824;SDS011;35714;55.708;37.478;2023-06-24T01:42:39;9.15;;;7.88;;
49824;SDS011;35714;55.708;37.478;2023-06-24T01:45:09;7.75;;;6.38;;
49824;SDS011;35714;55.708;37.478;2023-06-24T01:47:44;6.72;;;5.10;;
49824;SDS011;35714;55.708;37.478;2023-06-24T01:50:12;7.53;;;4.60;;
49824;SDS011;35714;55.708;37.478;2023-06-24T01:52:41;5.57;;;4.30;;
49824;SDS011;35714;55.708;37.478;2023-06-24T01:55:09;5.28;;;3.92;;
49824;SDS011;35714;55.708;37.478;2023-06-24T01:57:37;5.13;;;3.13;;
49824;SDS011;35714;55.708;37.478;2023-06-24T02:00:06;4.57;;;2.88;;
49824;SDS011;35714;55.708;37.478;2023-06-24T02:02:48;4.43;;;2.55;;
49824;SDS011;35714;55.708;37.478;2023-06-24T02:05:15;4.22;;;2.38;;
49824;SDS011;35714;55.708;37.478;2023-06-24T02:07:44;3.20;;;1.80;;
49824;SDS011;35714;55.708;37.478;2023-06-24T02:10:13;2.60;;;1.50;;
49824;SDS011;35714;55.708;37.478;2023-06-24T02:12:41;3.00;;;1.80;;
49824;SDS011;35714;55.708;37.478;2023-06-24T02:15:09;2.95;;;1.75;;
49824;SDS011;35714;55.708;37.478;2023-06-24T02:17:36;2.92;;;1.48;;
49824;SDS011;35714;55.708;37.478;2023-06-24T02:20:24;2.95;;;1.52;;
49824;SDS011;35714;55.708;37.478;2023-06-24T02:22:52;4.65;;;1.75;;
49824;SDS011;35714;55.708;37.478;2023-06-24T02:25:21;4.38;;;1.80;;
49824;SDS011;35714;55.708;37.478;2023-06-24T02:27:49;3.88;;;1.45;;
49824;SDS011;35714;55.708;37.478;2023-06-24T02:30:16;2.75;;;1.33;;
49824;SDS011;35714;55.708;37.478;2023-06-24T02:32:42;2.70;;;1.35;;
49824;SDS011;35714;55.708;37.478;2023-06-24T02:35:08;2.25;;;1.20;;
49824;SDS011;35714;55.708;37.478;2023-06-24T02:37:34;2.60;;;1.30;;
49824;SDS011;35714;55.708;37.478;2023-06-24T02:40:00;2.63;;;1.20;;
49824;SDS011;35714;55.708;37.478;2023-06-24T02:42:29;3.00;;;1.30;;
49824;SDS011;35714;55.708;37.478;2023-06-24T02:44:55;5.20;;;1.52;;
49824;SDS011;35714;55.708;37.478;2023-06-24T02:47:21;2.28;;;1.00;;
49824;SDS011;35714;55.708;37.478;2023-06-24T02:49:47;3.22;;;1.30;;
49824;SDS011;35714;55.708;37.478;2023-06-24T02:52:15;2.40;;;1.05;;
49824;SDS011;35714;55.708;37.478;2023-06-24T02:54:41;2.22;;;1.20;;
49824;SDS011;35714;55.708;37.478;2023-06-24T02:57:19;2.20;;;1.20;;
49824;SDS011;35714;55.708;37.478;2023-06-24T03:00:08;2.30;;;1.00;;
49824;SDS011;35714;55.708;37.478;2023-06-24T03:02:56;2.78;;;1.10;;
49824;SDS011;35714;55.708;37.478;2023-06-24T03:05:23;2.50;;;1.10;;
49824;SDS011;35714;55.708;37.478;2023-06-24T03:07:53;3.05;;;1.00;;
49824;SDS011;35714;55.708;37.478;2023-06-24T03:10:19;4.00;;;0.98;;
49824;SDS011;35714;55.708;37.478;2023-06-24T03:12:48;2.45;;;0.90;;
49824;SDS011;35714;55.708;37.478;2023-06-24T03:15:13;1.80;;;0.95;;
49824;SDS011;35714;55.708;37.478;2023-06-24T03:17:39;3.05;;;1.15;;
49824;SDS011;35714;55.708;37.478;2023-06-24T03:20:05;2.95;;;1.02;;
49824;SDS011;35714;55.708;37.478;2023-06-24T03:22:32;2.25;;;0.82;;
49824;SDS011;35714;55.708;37.478;2023-06-24T03:24:58;1.88;;;0.90;;
49824;SDS011;35714;55.708;37.478;2023-06-24T03:27:24;2.28;;;1.08;;
49824;SDS011;35714;55.708;37.478;2023-06-24T03:29:50;1.65;;;0.70;;
49824;SDS011;35714;55.708;37.478;2023-06-24T03:32:16;1.40;;;0.80;;
49824;SDS011;35714;55.708;37.478;2023-06-24T03:34:43;3.45;;;0.70;;
49824;SDS011;35714;55.708;37.478;2023-06-24T03:37:10;1.77;;;0.70;;
49824;SDS011;35714;55.708;37.478;2023-06-24T03:39:39;1.08;;;0.50;;
49824;SDS011;35714;55.708;37.478;2023-06-24T03:42:06;1.27;;;0.40;;
49824;SDS011;35714;55.708;37.478;2023-06-24T03:44:32;1.77;;;0.70;;
49824;SDS011;35714;55.708;37.478;2023-06-24T03:46:57;2.35;;;0.60;;
49824;SDS011;35714;55.708;37.478;2023-06-24T03:49:24;1.88;;;0.85;;
49824;SDS011;35714;55.708;37.478;2023-06-24T03:51:49;5.30;;;0.70;;
49824;SDS011;35714;55.708;37.478;2023-06-24T03:54:15;1.58;;;0.63;;
49824;SDS011;35714;55.708;37.478;2023-06-24T03:56:41;1.75;;;0.88;;
49824;SDS011;35714;55.708;37.478;2023-06-24T03:59:07;1.38;;;0.43;;
49824;SDS011;35714;55.708;37.478;2023-06-24T04:01:33;1.60;;;0.60;;
49824;SDS011;35714;55.708;37.478;2023-06-24T04:03:59;3.28;;;0.60;;
49824;SDS011;35714;55.708;37.478;2023-06-24T04:06:24;1.67;;;0.50;;
49824;SDS011;35714;55.708;37.478;2023-06-24T04:08:52;0.80;;;0.40;;
49824;SDS011;35714;55.708;37.478;2023-06-24T04:11:18;1.10;;;0.50;;
49824;SDS011;35714;55.708;37.478;2023-06-24T04:13:45;1.48;;;0.70;;
49824;SDS011;35714;55.708;37.478;2023-06-24T04:16:11;2.63;;;0.77;;
49824;SDS011;35714;55.708;37.478;2023-06-24T04:18:37;1.80;;;0.52;;
49824;SDS011;35714;55.708;37.478;2023-06-24T04:21:05;1.25;;;0.60;;
49824;SDS011;35714;55.708;37.478;2023-06-24T04:23:32;1.50;;;0.70;;
49824;SDS011;35714;55.708;37.478;2023-06-24T04:25:58;3.35;;;0.60;;
49824;SDS011;35714;55.708;37.478;2023-06-24T04:28:24;2.00;;;0.70;;
49824;SDS011;35714;55.708;37.478;2023-06-24T04:30:51;1.20;;;0.52;;
49824;SDS011;35714;55.708;37.478;2023-06-24T04:33:17;1.77;;;0.75;;
49824;SDS011;35714;55.708;37.478;2023-06-24T04:35:43;1.80;;;0.75;;
49824;SDS011;35714;55.708;37.478;2023-06-24T04:38:10;1.65;;;0.60;;
49824;SDS011;35714;55.708;37.478;2023-06-24T04:40:36;1.77;;;0.70;;
49824;SDS011;35714;55.708;37.478;2023-06-24T04:43:02;1.30;;;0.50;;
49824;SDS011;35714;55.708;37.478;2023-06-24T04:45:28;2.22;;;1.05;;
49824;SDS011;35714;55.708;37.478;2023-06-24T04:47:54;4.32;;;2.33;;
49824;SDS011;35714;55.708;37.478;2023-06-24T04:50:19;1.83;;;0.70;;
49824;SDS011;35714;55.708;37.478;2023-06-24T04:52:45;5.85;;;0.73;;
49824;SDS011;35714;55.708;37.478;2023-06-24T04:55:18;2.13;;;0.77;;
49824;SDS011;35714;55.708;37.478;2023-06-24T04:57:44;0.85;;;0.35;;
49824;SDS011;35714;55.708;37.478;2023-06-24T05:00:10;1.48;;;0.55;;
49824;SDS011;35714;55.708;37.478;2023-06-24T05:02:36;1.30;;;0.50;;
49824;SDS011;35714;55.708;37.478;2023-06-24T05:05:02;1.42;;;0.60;;
49824;SDS011;35714;55.708;37.478;2023-06-24T05:07:30;0.80;;;0.30;;
49824;SDS011;35714;55.708;37.478;2023-06-24T05:09:56;4.38;;;0.70;;
49824;SDS011;35714;55.708;37.478;2023-06-24T05:12:22;1.90;;;0.80;;
49824;SDS011;35714;55.708;37.478;2023-06-24T05:14:51;2.25;;;0.60;;
49824;SDS011;35714;55.708;37.478;2023-06-24T05:17:19;1.67;;;0.55;;
49824;SDS011;35714;55.708;37.478;2023-06-24T05:19:45;1.52;;;0.60;;
49824;SDS011;35714;55.708;37.478;2023-06-24T05:22:11;3.13;;;1.23;;
49824;SDS011;35714;55.708;37.478;2023-06-24T05:24:37;3.10;;;0.88;;
49824;SDS011;35714;55.708;37.478;2023-06-24T05:27:03;2.72;;;0.75;;
49824;SDS011;35714;55.708;37.478;2023-06-24T05:29:31;2.03;;;0.70;;
49824;SDS011;35714;55.708;37.478;2023-06-24T05:31:56;1.45;;;0.60;;
49824;SDS011;35714;55.708;37.478;2023-06-24T05:34:22;2.15;;;0.70;;
49824;SDS011;35714;55.708;37.478;2023-06-24T05:36:48;2.42;;;0.40;;
49824;SDS011;35714;55.708;37.478;2023-06-24T05:39:13;3.45;;;0.95;;
49824;SDS011;35714;55.708;37.478;2023-06-24T05:41:39;2.00;;;0.68;;
49824;SDS011;35714;55.708;37.478;2023-06-24T05:44:08;8.43;;;0.90;;
49824;SDS011;35714;55.708;37.478;2023-06-24T05:46:37;1.35;;;0.50;;
49824;SDS011;35714;55.708;37.478;2023-06-24T05:49:03;1.50;;;0.63;;
49824;SDS011;35714;55.708;37.478;2023-06-24T05:51:28;2.72;;;0.80;;
49824;SDS011;35714;55.708;37.478;2023-06-24T05:53:54;2.45;;;0.75;;
49824;SDS011;35714;55.708;37.478;2023-06-24T05:56:20;3.17;;;0.80;;
49824;SDS011;35714;55.708;37.478;2023-06-24T05:58:48;2.35;;;0.60;;
49824;SDS011;35714;55.708;37.478;2023-06-24T06:01:14;2.65;;;0.80;;
49824;SDS011;35714;55.708;37.478;2023-06-24T06:03:40;1.52;;;0.65;;
49824;SDS011;35714;55.708;37.478;2023-06-24T06:06:06;1.15;;;0.50;;
49824;SDS011;35714;55.708;37.478;2023-06-24T06:08:32;1.92;;;0.63;;
49824;SDS011;35714;55.708;37.478;2023-06-24T06:10:59;2.80;;;0.90;;
49824;SDS011;35714;55.708;37.478;2023-06-24T06:13:27;2.30;;;0.77;;
49824;SDS011;35714;55.708;37.478;2023-06-24T06:15:54;2.53;;;0.82;;
49824;SDS011;35714;55.708;37.478;2023-06-24T06:18:20;1.98;;;0.77;;
49824;SDS011;35714;55.708;37.478;2023-06-24T06:20:46;2.05;;;0.95;;
49824;SDS011;35714;55.708;37.478;2023-06-24T06:23:11;2.03;;;0.63;;
49824;SDS011;35714;55.708;37.478;2023-06-24T06:25:37;2.35;;;0.93;;
49824;SDS011;35714;55.708;37.478;2023-06-24T06:28:03;3.08;;;0.75;;
49824;SDS011;35714;55.708;37.478;2023-06-24T06:30:30;3.22;;;0.60;;
49824;SDS011;35714;55.708;37.478;2023-06-24T06:32:56;2.78;;;1.00;;
49824;SDS011;35714;55.708;37.478;2023-06-24T06:35:21;2.95;;;1.08;;
49824;SDS011;35714;55.708;37.478;2023-06-24T06:37:47;2.55;;;0.95;;
49824;SDS011;35714;55.708;37.478;2023-06-24T06:40:20;3.25;;;0.88;;
49824;SDS011;35714;55.708;37.478;2023-06-24T06:42:46;2.33;;;0.80;;
49824;SDS011;35714;55.708;37.478;2023-06-24T06:45:12;2.85;;;1.00;;
49824;SDS011;35714;55.708;37.478;2023-06-24T06:47:38;1.73;;;0.95;;
49824;SDS011;35714;55.708;37.478;2023-06-24T06:50:04;2.55;;;1.08;;
49824;SDS011;35714;55.708;37.478;2023-06-24T06:52:30;3.30;;;1.08;;
49824;SDS011;35714;55.708;37.478;2023-06-24T06:54:56;4.35;;;1.80;;
49824;SDS011;35714;55.708;37.478;2023-06-24T06:57:22;3.45;;;1.30;;
49824;SDS011;35714;55.708;37.478;2023-06-24T06:59:47;7.05;;;1.40;;
49824;SDS011;35714;55.708;37.478;2023-06-24T07:02:16;2.80;;;1.10;;
49824;SDS011;35714;55.708;37.478;2023-06-24T07:04:43;2.17;;;0.80;;
49824;SDS011;35714;55.708;37.478;2023-06-24T07:07:09;1.95;;;0.73;;
49824;SDS011;35714;55.708;37.478;2023-06-24T07:09:34;2.38;;;0.70;;
49824;SDS011;35714;55.708;37.478;2023-06-24T07:12:01;2.78;;;1.10;;
49824;SDS011;35714;55.708;37.478;2023-06-24T07:14:27;7.03;;;1.30;;
49824;SDS011;35714;55.708;37.478;2023-06-24T07:16:52;2.42;;;1.00;;
49824;SDS011;35714;55.708;37.478;2023-06-24T07:19:18;3.28;;;1.50;;
49824;SDS011;35714;55.708;37.478;2023-06-24T07:21:44;3.47;;;1.05;;
49824;SDS011;35714;55.708;37.478;2023-06-24T07:24:10;3.72;;;1.40;;
49824;SDS011;35714;55.708;37.478;2023-06-24T07:26:35;2.70;;;1.15;;
49824;SDS011;35714;55.708;37.478;2023-06-24T07:29:01;3.63;;;1.00;;
49824;SDS011;35714;55.708;37.478;2023-06-24T07:31:27;3.55;;;1.10;;
49824;SDS011;35714;55.708;37.478;2023-06-24T07:33:53;3.33;;;1.23;;
49824;SDS011;35714;55.708;37.478;2023-06-24T07:36:18;2.92;;;1.50;;
49824;SDS011;35714;55.708;37.478;2023-06-24T07:38:44;2.60;;;1.20;;
49824;SDS011;35714;55.708;37.478;2023-06-24T07:41:10;3.92;;;1.30;;
49824;SDS011;35714;55.708;37.478;2023-06-24T07:43:35;3.90;;;1.45;;
49824;SDS011;35714;55.708;37.478;2023-06-24T07:46:01;3.55;;;1.42;;
49824;SDS011;35714;55.708;37.478;2023-06-24T07:48:27;3.42;;;1.08;;
49824;SDS011;35714;55.708;37.478;2023-06-24T07:50:53;3.92;;;1.60;;
49824;SDS011;35714;55.708;37.478;2023-06-24T07:53:19;7.93;;;1.48;;
49824;SDS011;35714;55.708;37.478;2023-06-24T07:55:44;3.15;;;1.20;;
49824;SDS011;35714;55.708;37.478;2023-06-24T07:58:10;4.65;;;1.55;;
49824;SDS011;35714;55.708;37.478;2023-06-24T08:00:36;5.20;;;2.80;;
49824;SDS011;35714;55.708;37.478;2023-06-24T08:03:03;3.13;;;1.60;;
49824;SDS011;35714;55.708;37.478;2023-06-24T08:05:29;2.97;;;1.50;;
49824;SDS011;35714;55.708;37.478;2023-06-24T08:07:54;4.05;;;1.95;;
49824;SDS011;35714;55.708;37.478;2023-06-24T08:10:20;4.28;;;2.05;;
49824;SDS011;35714;55.708;37.478;2023-06-24T08:12:46;3.67;;;1.70;;
49824;SDS011;35714;55.708;37.478;2023-06-24T08:15:11;3.13;;;1.60;;
49824;SDS011;35714;55.708;37.478;2023-06-24T08:17:38;5.55;;;1.98;;
49824;SDS011;35714;55.708;37.478;2023-06-24T08:20:03;4.18;;;1.50;;
49824;SDS011;35714;55.708;37.478;2023-06-24T08:22:31;3.67;;;1.55;;
49824;SDS011;35714;55.708;37.478;2023-06-24T08:24:58;3.78;;;1.70;;
49824;SDS011;35714;55.708;37.478;2023-06-24T08:27:24;3.08;;;1.55;;
49824;SDS011;35714;55.708;37.478;2023-06-24T08:29:49;3.75;;;2.00;;
49824;SDS011;35714;55.708;37.478;2023-06-24T08:32:15;5.20;;;3.22;;
49824;SDS011;35714;55.708;37.478;2023-06-24T08:34:41;6.28;;;2.63;;
49824;SDS011;35714;55.708;37.478;2023-06-24T08:37:07;3.63;;;1.92;;
49824;SDS011;35714;55.708;37.478;2023-06-24T08:39:32;4.90;;;1.65;;
49824;SDS011;35714;55.708;37.478;2023-06-24T08:41:58;3.58;;;1.58;;
49824;SDS011;35714;55.708;37.478;2023-06-24T08:44:24;3.10;;;1.42;;
49824;SDS011;35714;55.708;37.478;2023-06-24T08:46:50;3.30;;;1.58;;
49824;SDS011;35714;55.708;37.478;2023-06-24T08:51:59;4.43;;;1.52;;
49824;SDS011;35714;55.708;37.478;2023-06-24T08:54:28;4.00;;;1.70;;
49824;SDS011;35714;55.708;37.478;2023-06-24T08:56:53;4.57;;;1.60;;
49824;SDS011;35714;55.708;37.478;2023-06-24T08:59:19;4.65;;;1.60;;
49824;SDS011;35714;55.708;37.478;2023-06-24T09:01:46;3.80;;;1.70;;
49824;SDS011;35714;55.708;37.478;2023-06-24T09:04:12;3.85;;;1.48;;
49824;SDS011;35714;55.708;37.478;2023-06-24T09:06:38;4.10;;;1.77;;
49824;SDS011;35714;55.708;37.478;2023-06-24T09:09:03;3.90;;;1.73;;
49824;SDS011;35714;55.708;37.478;2023-06-24T09:11:30;3.67;;;1.65;;
49824;SDS011;35714;55.708;37.478;2023-06-24T09:14:03;4.43;;;1.70;;
49824;SDS011;35714;55.708;37.478;2023-06-24T09:16:57;4.28;;;1.83;;
49824;SDS011;35714;55.708;37.478;2023-06-24T09:23:53;3.67;;;1.77;;
49824;SDS011;35714;55.708;37.478;2023-06-24T09:30:41;4.28;;;1.88;;
49824;SDS011;35714;55.708;37.478;2023-06-24T09:33:10;4.53;;;1.70;;
49824;SDS011;35714;55.708;37.478;2023-06-24T09:35:36;3.30;;;1.73;;
49824;SDS011;35714;55.708;37.478;2023-06-24T09:38:02;6.13;;;2.42;;
49824;SDS011;35714;55.708;37.478;2023-06-24T09:40:28;3.63;;;1.30;;
49824;SDS011;35714;55.708;37.478;2023-06-24T09:42:57;5.03;;;2.40;;
49824;SDS011;35714;55.708;37.478;2023-06-24T09:45:26;3.33;;;1.80;;
49824;SDS011;35714;55.708;37.478;2023-06-24T09:47:54;4.05;;;2.10;;
49824;SDS011;35714;55.708;37.478;2023-06-24T09:50:21;4.53;;;2.22;;
49824;SDS011;35714;55.708;37.478;2023-06-24T09:52:48;5.78;;;2.00;;
49824;SDS011;35714;55.708;37.478;2023-06-24T09:55:15;3.53;;;1.85;;
49824;SDS011;35714;55.708;37.478;2023-06-24T09:57:42;5.13;;;2.13;;
49824;SDS011;35714;55.708;37.478;2023-06-24T10:00:11;7.38;;;4.47;;
49824;SDS011;35714;55.708;37.478;2023-06-24T10:02:41;5.53;;;2.95;;
49824;SDS011;35714;55.708;37.478;2023-06-24T10:05:08;4.53;;;2.47;;
49824;SDS011;35714;55.708;37.478;2023-06-24T10:07:34;3.95;;;2.70;;
49824;SDS011;35714;55.708;37.478;2023-06-24T10:10:01;4.38;;;3.15;;
49824;SDS011;35714;55.708;37.478;2023-06-24T10:12:31;5.30;;;2.75;;
49824;SDS011;35714;55.708;37.478;2023-06-24T10:14:58;4.45;;;2.70;;
49824;SDS011;35714;55.708;37.478;2023-06-24T10:17:24;4.90;;;3.10;;
49824;SDS011;35714;55.708;37.478;2023-06-24T10:19:51;4.85;;;3.25;;
49824;SDS011;35714;55.708;37.478;2023-06-24T10:22:24;4.60;;;3.25;;
49824;SDS011;35714;55.708;37.478;2023-06-24T10:24:51;8.80;;;3.78;;
49824;SDS011;35714;55.708;37.478;2023-06-24T10:27:20;4.90;;;2.92;;
49824;SDS011;35714;55.708;37.478;2023-06-24T10:29:50;4.20;;;2.90;;
49824;SDS011;35714;55.708;37.478;2023-06-24T10:32:19;4.80;;;3.17;;
49824;SDS011;35714;55.708;37.478;2023-06-24T10:34:47;4.50;;;3.10;;
49824;SDS011;35714;55.708;37.478;2023-06-24T10:37:19;6.40;;;3.40;;
49824;SDS011;35714;55.708;37.478;2023-06-24T10:39:47;5.10;;;2.78;;
49824;SDS011;35714;55.708;37.478;2023-06-24T10:44:45;4.68;;;2.67;;
49824;SDS011;35714;55.708;37.478;2023-06-24T10:47:11;6.28;;;2.88;;
49824;SDS011;35714;55.708;37.478;2023-06-24T10:49:37;3.70;;;2.78;;
49824;SDS011;35714;55.708;37.478;2023-06-24T10:52:03;4.45;;;2.70;;
49824;SDS011;35714;55.708;37.478;2023-06-24T10:54:29;4.25;;;2.63;;
49824;SDS011;35714;55.708;37.478;2023-06-24T10:56:55;4.28;;;2.78;;
49824;SDS011;35714;55.708;37.478;2023-06-24T10:59:21;5.13;;;2.92;;
49824;SDS011;35714;55.708;37.478;2023-06-24T11:01:53;4.55;;;3.20;;
49824;SDS011;35714;55.708;37.478;2023-06-24T11:04:19;6.25;;;2.50;;
49824;SDS011;35714;55.708;37.478;2023-06-24T11:07:00;6.28;;;2.90;;
49824;SDS011;35714;55.708;37.478;2023-06-24T11:09:27;4.72;;;2.65;;
49824;SDS011;35714;55.708;37.478;2023-06-24T11:11:53;4.13;;;2.60;;
49824;SDS011;35714;55.708;37.478;2023-06-24T11:14:19;5.18;;;3.00;;
49824;SDS011;35714;55.708;37.478;2023-06-24T11:16:45;6.00;;;2.90;;
49824;SDS011;35714;55.708;37.478;2023-06-24T11:19:11;6.65;;;3.17;;
49824;SDS011;35714;55.708;37.478;2023-06-24T11:21:37;4.30;;;2.60;;
49824;SDS011;35714;55.708;37.478;2023-06-24T11:24:03;4.90;;;3.40;;
49824;SDS011;35714;55.708;37.478;2023-06-24T11:26:29;4.00;;;2.85;;
49824;SDS011;35714;55.708;37.478;2023-06-24T11:28:55;6.53;;;2.92;;
49824;SDS011;35714;55.708;37.478;2023-06-24T11:31:27;5.38;;;3.50;;
49824;SDS011;35714;55.708;37.478;2023-06-24T11:33:53;4.97;;;3.08;;
49824;SDS011;35714;55.708;37.478;2023-06-24T11:36:19;5.70;;;2.90;;
49824;SDS011;35714;55.708;37.478;2023-06-24T11:38:45;7.40;;;4.13;;
49824;SDS011;35714;55.708;37.478;2023-06-24T11:41:12;7.00;;;3.75;;
49824;SDS011;35714;55.708;37.478;2023-06-24T11:43:45;5.80;;;3.35;;
49824;SDS011;35714;55.708;37.478;2023-06-24T11:46:21;5.13;;;2.58;;
49824;SDS011;35714;55.708;37.478;2023-06-24T11:48:47;4.75;;;2.80;;
49824;SDS011;35714;55.708;37.478;2023-06-24T11:51:13;6.40;;;3.13;;
49824;SDS011;35714;55.708;37.478;2023-06-24T11:53:42;5.03;;;2.60;;
49824;SDS011;35714;55.708;37.478;2023-06-24T11:56:11;4.50;;;2.70;;
49824;SDS011;35714;55.708;37.478;2023-06-24T11:58:37;4.20;;;2.33;;
49824;SDS011;35714;55.708;37.478;2023-06-24T12:01:03;7.47;;;2.38;;
49824;SDS011;35714;55.708;37.478;2023-06-24T12:03:32;5.25;;;2.65;;
49824;SDS011;35714;55.708;37.478;2023-06-24T12:05:59;5.40;;;2.53;;
49824;SDS011;35714;55.708;37.478;2023-06-24T12:08:25;4.20;;;2.25;;
49824;SDS011;35714;55.708;37.478;2023-06-24T12:10:51;5.18;;;3.40;;
49824;SDS011;35714;55.708;37.478;2023-06-24T12:13:17;6.28;;;3.20;;
49824;SDS011;35714;55.708;37.478;2023-06-24T12:15:42;6.65;;;2.50;;
49824;SDS011;35714;55.708;37.478;2023-06-24T12:18:09;6.15;;;1.98;;
49824;SDS011;35714;55.708;37.478;2023-06-24T12:20:34;4.43;;;2.28;;
49824;SDS011;35714;55.708;37.478;2023-06-24T12:23:02;5.18;;;2.15;;
49824;SDS011;35714;55.708;37.478;2023-06-24T12:25:31;5.00;;;2.97;;
49824;SDS011;35714;55.708;37.478;2023-06-24T12:27:57;4.82;;;2.63;;
49824;SDS011;35714;55.708;37.478;2023-06-24T12:30:24;4.53;;;2.03;;
49824;SDS011;35714;55.708;37.478;2023-06-24T12:32:50;4.45;;;1.70;;
49824;SDS011;35714;55.708;37.478;2023-06-24T12:35:16;3.95;;;1.65;;
49824;SDS011;35714;55.708;37.478;2023-06-24T12:37:42;5.05;;;1.85;;
49824;SDS011;35714;55.708;37.478;2023-06-24T12:40:10;5.28;;;1.70;;
49824;SDS011;35714;55.708;37.478;2023-06-24T12:42:36;3.92;;;2.15;;
49824;SDS011;35714;55.708;37.478;2023-06-24T12:45:02;3.00;;;1.70;;
49824;SDS011;35714;55.708;37.478;2023-06-24T12:47:32;3.00;;;1.73;;
49824;SDS011;35714;55.708;37.478;2023-06-24T12:49:58;3.97;;;1.92;;
49824;SDS011;35714;55.708;37.478;2023-06-24T12:52:23;3.35;;;1.88;;
49824;SDS011;35714;55.708;37.478;2023-06-24T12:54:49;5.07;;;2.20;;
49824;SDS011;35714;55.708;37.478;2023-06-24T12:57:15;6.78;;;2.33;;
49824;SDS011;35714;55.708;37.478;2023-06-24T12:59:41;4.60;;;2.97;;
49824;SDS011;35714;55.708;37.478;2023-06-24T13:02:07;3.97;;;2.35;;
49824;SDS011;35714;55.708;37.478;2023-06-24T13:04:32;5.78;;;2.35;;
49824;SDS011;35714;55.708;37.478;2023-06-24T13:06:58;3.80;;;2.33;;
49824;SDS011;35714;55.708;37.478;2023-06-24T13:09:24;3.80;;;2.10;;
49824;SDS011;35714;55.708;37.478;2023-06-24T13:11:49;5.15;;;2.60;;
49824;SDS011;35714;55.708;37.478;2023-06-24T13:14:16;5.55;;;2.63;;
49824;SDS011;35714;55.708;37.478;2023-06-24T13:16:42;5.88;;;2.47;;
49824;SDS011;35714;55.708;37.478;2023-06-24T13:19:08;5.35;;;2.92;;
49824;SDS011;35714;55.708;37.478;2023-06-24T13:21:33;4.28;;;2.58;;
49824;SDS011;35714;55.708;37.478;2023-06-24T13:23:59;4.97;;;2.15;;
49824;SDS011;35714;55.708;37.478;2023-06-24T13:26:25;5.25;;;2.35;;
49824;SDS011;35714;55.708;37.478;2023-06-24T13:28:50;4.40;;;2.55;;
49824;SDS011;35714;55.708;37.478;2023-06-24T13:31:18;7.68;;;2.47;;
49824;SDS011;35714;55.708;37.478;2023-06-24T13:33:43;7.90;;;4.95;;
49824;SDS011;35714;55.708;37.478;2023-06-24T13:36:11;5.65;;;3.25;;
49824;SDS011;35714;55.708;37.478;2023-06-24T13:38:53;4.68;;;2.40;;
49824;SDS011;35714;55.708;37.478;2023-06-24T13:41:19;4.22;;;2.45;;
49824;SDS011;35714;55.708;37.478;2023-06-24T13:43:45;5.30;;;2.47;;
49824;SDS011;35714;55.708;37.478;2023-06-24T13:46:10;4.88;;;2.30;;
49824;SDS011;35714;55.708;37.478;2023-06-24T13:48:37;6.28;;;2.15;;
49824;SDS011;35714;55.708;37.478;2023-06-24T13:51:02;3.78;;;1.75;;
49824;SDS011;35714;55.708;37.478;2023-06-24T13:53:28;2.92;;;1.75;;
49824;SDS011;35714;55.708;37.478;2023-06-24T13:55:53;3.53;;;1.83;;
49824;SDS011;35714;55.708;37.478;2023-06-24T13:58:20;6.60;;;3.03;;
49824;SDS011;35714;55.708;37.478;2023-06-24T14:00:45;4.63;;;2.47;;
49824;SDS011;35714;55.708;37.478;2023-06-24T14:03:11;6.15;;;4.10;;
49824;SDS011;35714;55.708;37.478;2023-06-24T14:05:37;5.38;;;2.60;;
49824;SDS011;35714;55.708;37.478;2023-06-24T14:08:02;8.98;;;2.47;;
49824;SDS011;35714;55.708;37.478;2023-06-24T14:10:29;3.80;;;2.10;;
49824;SDS011;35714;55.708;37.478;2023-06-24T14:12:54;9.77;;;2.60;;
49824;SDS011;35714;55.708;37.478;2023-06-24T14:15:20;4.78;;;2.03;;
49824;SDS011;35714;55.708;37.478;2023-06-24T14:17:46;3.38;;;1.90;;
49824;SDS011;35714;55.708;37.478;2023-06-24T14:20:12;5.13;;;2.33;;
49824;SDS011;35714;55.708;37.478;2023-06-24T14:22:37;4.97;;;3.30;;
49824;SDS011;35714;55.708;37.478;2023-06-24T14:25:03;4.28;;;2.40;;
49824;SDS011;35714;55.708;37.478;2023-06-24T14:27:29;4.32;;;2.15;;
49824;SDS011;35714;55.708;37.478;2023-06-24T14:29:55;4.70;;;2.13;;
49824;SDS011;35714;55.708;37.478;2023-06-24T14:32:21;3.92;;;1.70;;
49824;SDS011;35714;55.708;37.478;2023-06-24T14:34:46;3.85;;;1.67;;
49824;SDS011;35714;55.708;37.478;2023-06-24T14:37:12;4.97;;;2.10;;
49824;SDS011;35714;55.708;37.478;2023-06-24T14:39:39;4.68;;;2.40;;
49824;SDS011;35714;55.708;37.478;2023-06-24T14:42:05;5.35;;;2.30;;
49824;SDS011;35714;55.708;37.478;2023-06-24T14:44:31;8.02;;;2.30;;
49824;SDS011;35714;55.708;37.478;2023-06-24T14:46:57;4.40;;;1.77;;
49824;SDS011;35714;55.708;37.478;2023-06-24T14:49:22;7.78;;;2.10;;
49824;SDS011;35714;55.708;37.478;2023-06-24T14:51:48;3.47;;;1.85;;
49824;SDS011;35714;55.708;37.478;2023-06-24T14:54:13;5.85;;;2.17;;
49824;SDS011;35714;55.708;37.478;2023-06-24T14:56:39;3.60;;;1.88;;
49824;SDS011;35714;55.708;37.478;2023-06-24T14:59:05;4.45;;;2.45;;